sensor_id;sensor_type;location;lat;lon;timestamp;pressure;altitude;pressure_sealevel;temperature;humidity
61880;BME280;47817;52.798;27.544;2023-01-29T00:01:15;1027.6;;;1;78.9
61880;BME280;47817;52.798;27.544;2023-01-29T00:06:13;1027.6;;;1.1;78.8
61880;BME280;47817;52.798;27.544;2023-01-29T00:11:17;1027.5;;;1.1;78.9
61880;BME280;47817;52.798;27.544;2023-01-29T00:16:07;1027.5;;;1.1;79
61880;BME280;47817;52.798;27.544;2023-01-29T00:21:27;1027.6;;;1;78.7
61880;BME280;47817;52.798;27.544;2023-01-29T00:26:53;1027.5;;;0.9;78.7
61880;BME280;47817;52.798;27.544;2023-01-29T00:31:07;1027.5;;;0.8;78.6
61880;BME280;47817;52.798;27.544;2023-01-29T00:36:51;1027.6;;;0.8;79.1
61880;BME280;47817;52.798;27.544;2023-01-29T00:41:07;1027.6;;;0.8;79.1
61880;BME280;47817;52.798;27.544;2023-01-29T00:46:39;1027.6;;;0.8;79.3
61880;BME280;47817;52.798;27.544;2023-01-29T00:51:29;1027.5;;;0.8;79.2
61880;BME280;47817;52.798;27.544;2023-01-29T00:56:39;1027.5;;;0.8;79.3
61880;BME280;47817;52.798;27.544;2023-01-29T01:01:07;1027.5;;;0.7;79.4
61880;BME280;47817;52.798;27.544;2023-01-29T01:06:49;1027.5;;;0.7;79.5
61880;BME280;47817;52.798;27.544;2023-01-29T01:11:07;1027.4;;;0.7;79.6
61880;BME280;47817;52.798;27.544;2023-01-29T01:16:53;1027.3;;;0.8;79.4
61880;BME280;47817;52.798;27.544;2023-01-29T01:21:53;1027.2;;;0.8;79.3
61880;BME280;47817;52.798;27.544;2023-01-29T01:26:07;1027.2;;;0.8;79
61880;BME280;47817;52.798;27.544;2023-01-29T01:31:37;1027.2;;;0.8;79
61880;BME280;47817;52.798;27.544;2023-01-29T01:36:17;1027.2;;;0.8;78.9
61880;BME280;47817;52.798;27.544;2023-01-29T01:41:41;1027.1;;;0.8;78.9
61880;BME280;47817;52.798;27.544;2023-01-29T01:46:17;1027.1;;;0.7;78.8
61880;BME280;47817;52.798;27.544;2023-01-29T01:51:37;1027.1;;;0.7;78.8
61880;BME280;47817;52.798;27.544;2023-01-29T01:56:08;1027.1;;;0.8;79
61880;BME280;47817;52.798;27.544;2023-01-29T02:01:37;1027.1;;;0.8;79
61880;BME280;47817;52.798;27.544;2023-01-29T02:06:29;1027.1;;;0.7;79
61880;BME280;47817;52.798;27.544;2023-01-29T02:11:53;1027;;;0.7;79.3
61880;BME280;47817;52.798;27.544;2023-01-29T02:16:41;1027;;;0.7;79.3
61880;BME280;47817;52.798;27.544;2023-01-29T02:21:54;1027;;;0.7;79.5
61880;BME280;47817;52.798;27.544;2023-01-29T02:26:57;1027;;;0.8;79.5
61880;BME280;47817;52.798;27.544;2023-01-29T02:31:33;1027;;;0.7;79.6
61880;BME280;47817;52.798;27.544;2023-01-29T02:36:43;1027;;;0.7;79.8
61880;BME280;47817;52.798;27.544;2023-01-29T02:41:33;1027;;;0.7;80.2
61880;BME280;47817;52.798;27.544;2023-01-29T02:46:43;1027.1;;;0.7;80.2
61880;BME280;47817;52.798;27.544;2023-01-29T02:51:08;1027;;;0.7;80.4
61880;BME280;47817;52.798;27.544;2023-01-29T02:56:54;1027;;;0.7;80.4
61880;BME280;47817;52.798;27.544;2023-01-29T03:01:32;1027;;;0.7;80.4
61880;BME280;47817;52.798;27.544;2023-01-29T03:06:44;1027;;;0.7;80.5
61880;BME280;47817;52.798;27.544;2023-01-29T03:11:53;1026.9;;;0.7;80.7
61880;BME280;47817;52.798;27.544;2023-01-29T03:16:53;1026.9;;;0.8;80.7
61880;BME280;47817;52.798;27.544;2023-01-29T03:21:29;1026.9;;;0.8;80.5
61880;BME280;47817;52.798;27.544;2023-01-29T03:26:07;1026.9;;;0.8;80.7
61880;BME280;47817;52.798;27.544;2023-01-29T03:31:55;1026.9;;;0.8;80.6
61880;BME280;47817;52.798;27.544;2023-01-29T03:36:22;1026.9;;;0.8;80.5
61880;BME280;47817;52.798;27.544;2023-01-29T03:41:44;1026.9;;;0.8;80.4
61880;BME280;47817;52.798;27.544;2023-01-29T03:46:57;1026.8;;;0.8;79.8
61880;BME280;47817;52.798;27.544;2023-01-29T03:51:57;1026.7;;;0.8;78.9
61880;BME280;47817;52.798;27.544;2023-01-29T03:56:08;1026.7;;;0.9;78.2
61880;BME280;47817;52.798;27.544;2023-01-29T04:01:53;1026.7;;;0.9;77.5
61880;BME280;47817;52.798;27.544;2023-01-29T04:06:21;1026.7;;;1;77.2
61880;BME280;47817;52.798;27.544;2023-01-29T04:11:23;1026.6;;;1;76.7
61880;BME280;47817;52.798;27.544;2023-01-29T04:16:43;1026.6;;;0.9;75.3
61880;BME280;47817;52.798;27.544;2023-01-29T04:21:17;1026.6;;;0.8;75.1
61880;BME280;47817;52.798;27.544;2023-01-29T04:26:38;1026.6;;;0.7;75.3
61880;BME280;47817;52.798;27.544;2023-01-29T04:31:07;1026.6;;;0.7;75.7
61880;BME280;47817;52.798;27.544;2023-01-29T04:36:23;1026.4;;;0.6;76.2
61880;BME280;47817;52.798;27.544;2023-01-29T04:41:58;1026.4;;;0.6;76.7
61880;BME280;47817;52.798;27.544;2023-01-29T04:46:34;1026.3;;;0.6;77
61880;BME280;47817;52.798;27.544;2023-01-29T04:51:32;1026.3;;;0.6;77.3
61880;BME280;47817;52.798;27.544;2023-01-29T04:57:00;1026.3;;;0.6;77.5
61880;BME280;47817;52.798;27.544;2023-01-29T05:01:41;1026.4;;;0.5;77.6
61880;BME280;47817;52.798;27.544;2023-01-29T05:06:23;1026.5;;;0.4;77.8
61880;BME280;47817;52.798;27.544;2023-01-29T05:11:31;1026.4;;;0.4;77.7
61880;BME280;47817;52.798;27.544;2023-01-29T05:16:33;1026.4;;;0.4;77.3
61880;BME280;47817;52.798;27.544;2023-01-29T05:21:19;1026.3;;;0.4;77.1
61880;BME280;47817;52.798;27.544;2023-01-29T05:26:55;1026.2;;;0.4;77.1
61880;BME280;47817;52.798;27.544;2023-01-29T05:31:45;1026.3;;;0.5;77
61880;BME280;47817;52.798;27.544;2023-01-29T05:36:53;1026.3;;;0.5;76.9
61880;BME280;47817;52.798;27.544;2023-01-29T05:41:19;1026.2;;;0.5;77
61880;BME280;47817;52.798;27.544;2023-01-29T05:46:55;1026.3;;;0.5;76.6
61880;BME280;47817;52.798;27.544;2023-01-29T05:51:35;1026.2;;;0.5;75.4
61880;BME280;47817;52.798;27.544;2023-01-29T05:56:43;1026.4;;;0.5;73.6
61880;BME280;47817;52.798;27.544;2023-01-29T06:01:08;1026.4;;;0.5;72.9
61880;BME280;47817;52.798;27.544;2023-01-29T06:06:57;1026.5;;;0.5;71.7
61880;BME280;47817;52.798;27.544;2023-01-29T06:11:19;1026.6;;;0.4;70.1
61880;BME280;47817;52.798;27.544;2023-01-29T06:16:33;1026.6;;;0.4;69.7
61880;BME280;47817;52.798;27.544;2023-01-29T06:21:57;1026.6;;;0.4;69.8
61880;BME280;47817;52.798;27.544;2023-01-29T06:26:45;1026.6;;;0.5;69.5
61880;BME280;47817;52.798;27.544;2023-01-29T06:31:07;1026.6;;;0.5;69.5
61880;BME280;47817;52.798;27.544;2023-01-29T06:36:31;1026.6;;;0.5;69.1
61880;BME280;47817;52.798;27.544;2023-01-29T06:41:29;1026.6;;;0.5;68.7
61880;BME280;47817;52.798;27.544;2023-01-29T06:46:07;1026.6;;;0.6;68.8
61880;BME280;47817;52.798;27.544;2023-01-29T06:51:31;1026.6;;;0.6;68.8
61880;BME280;47817;52.798;27.544;2023-01-29T06:56:21;1026.6;;;0.6;68.8
61880;BME280;47817;52.798;27.544;2023-01-29T07:01:25;1026.6;;;0.6;68.7
61880;BME280;47817;52.798;27.544;2023-01-29T07:06:07;1026.6;;;0.6;68.8
61880;BME280;47817;52.798;27.544;2023-01-29T07:11:55;1026.6;;;0.5;68.5
61880;BME280;47817;52.798;27.544;2023-01-29T07:16:35;1026.6;;;0.5;68.1
61880;BME280;47817;52.798;27.544;2023-01-29T07:21:33;1026.6;;;0.5;67.7
61880;BME280;47817;52.798;27.544;2023-01-29T07:26:57;1026.4;;;0.5;67.8
61880;BME280;47817;52.798;27.544;2023-01-29T07:31:07;1026.4;;;0.7;67.8
61880;BME280;47817;52.798;27.544;2023-01-29T07:36:45;1026.4;;;0.9;67.4
61880;BME280;47817;52.798;27.544;2023-01-29T07:41:31;1026.4;;;0.8;66.2
61880;BME280;47817;52.798;27.544;2023-01-29T07:46:23;1026.3;;;0.9;65.5
61880;BME280;47817;52.798;27.544;2023-01-29T07:51:33;1026.3;;;1;64.6
61880;BME280;47817;52.798;27.544;2023-01-29T07:56:57;1026.2;;;1.1;64.2
61880;BME280;47817;52.798;27.544;2023-01-29T08:01:29;1026.2;;;1.2;63.3
61880;BME280;47817;52.798;27.544;2023-01-29T08:06:43;1026.1;;;1.7;62.6
61880;BME280;47817;52.798;27.544;2023-01-29T08:11:17;1026.1;;;1.9;60.7
61880;BME280;47817;52.798;27.544;2023-01-29T08:16:57;1026.2;;;2;60.3
61880;BME280;47817;52.798;27.544;2023-01-29T08:21:21;1026.2;;;2;60
61880;BME280;47817;52.798;27.544;2023-01-29T08:26:31;1026.2;;;2.1;60.6
61880;BME280;47817;52.798;27.544;2023-01-29T08:31:55;1026.2;;;2;60.9
61880;BME280;47817;52.798;27.544;2023-01-29T08:36:39;1026.1;;;1.8;61.1
61880;BME280;47817;52.798;27.544;2023-01-29T08:41:07;1026;;;1.8;61
61880;BME280;47817;52.798;27.544;2023-01-29T08:46:55;1026.1;;;1.6;61
61880;BME280;47817;52.798;27.544;2023-01-29T08:51:57;1026;;;1.6;61.3
61880;BME280;47817;52.798;27.544;2023-01-29T08:56:33;1026;;;1.5;61.3
61880;BME280;47817;52.798;27.544;2023-01-29T09:01:53;1026;;;1.5;61
61880;BME280;47817;52.798;27.544;2023-01-29T09:06:33;1026;;;1.5;60.8
61880;BME280;47817;52.798;27.544;2023-01-29T09:11:33;1025.9;;;1.7;61
61880;BME280;47817;52.798;27.544;2023-01-29T09:16:33;1025.9;;;1.8;60.8
61880;BME280;47817;52.798;27.544;2023-01-29T09:21:33;1025.8;;;1.8;60.6
61880;BME280;47817;52.798;27.544;2023-01-29T09:26:17;1025.8;;;2;60.4
61880;BME280;47817;52.798;27.544;2023-01-29T09:31:07;1025.7;;;2.2;59.7
61880;BME280;47817;52.798;27.544;2023-01-29T09:36:31;1025.6;;;2.3;59.6
61880;BME280;47817;52.798;27.544;2023-01-29T09:41:55;1025.5;;;2.3;59.1
61880;BME280;47817;52.798;27.544;2023-01-29T09:46:22;1025.4;;;2.3;59.5
61880;BME280;47817;52.798;27.544;2023-01-29T09:51:09;1025.5;;;2.2;59
61880;BME280;47817;52.798;27.544;2023-01-29T09:56:55;1025.4;;;2.2;59.2
61880;BME280;47817;52.798;27.544;2023-01-29T10:01:39;1025.3;;;2.4;58.9
61880;BME280;47817;52.798;27.544;2023-01-29T10:06:14;1025.2;;;2.5;58.8
61880;BME280;47817;52.798;27.544;2023-01-29T10:11:33;1025.2;;;2.4;58.8
61880;BME280;47817;52.798;27.544;2023-01-29T10:16:10;1025.2;;;2.3;59
61880;BME280;47817;52.798;27.544;2023-01-29T10:21:45;1025;;;2.4;59
61880;BME280;47817;52.798;27.544;2023-01-29T10:26:22;1025;;;2.6;58.9
61880;BME280;47817;52.798;27.544;2023-01-29T10:31:31;1025;;;2.5;58.5
61880;BME280;47817;52.798;27.544;2023-01-29T10:36:51;1025;;;2.6;58.4
61880;BME280;47817;52.798;27.544;2023-01-29T10:41:38;1024.9;;;2.7;58.2
61880;BME280;47817;52.798;27.544;2023-01-29T10:46:47;1024.8;;;2.9;57.5
61880;BME280;47817;52.798;27.544;2023-01-29T10:52:01;1024.6;;;2.9;57.4
61880;BME280;47817;52.798;27.544;2023-01-29T10:56:42;1024.6;;;2.8;57.2
61880;BME280;47817;52.798;27.544;2023-01-29T11:01:31;1024.5;;;2.7;57.3
61880;BME280;47817;52.798;27.544;2023-01-29T11:06:31;1024.5;;;2.6;57.4
61880;BME280;47817;52.798;27.544;2023-01-29T11:11:17;1024.3;;;2.6;57.6
61880;BME280;47817;52.798;27.544;2023-01-29T11:16:31;1024.3;;;2.9;57.5
61880;BME280;47817;52.798;27.544;2023-01-29T11:21:55;1024.2;;;3.1;57.3
61880;BME280;47817;52.798;27.544;2023-01-29T11:26:32;1024.1;;;3.1;56.9
61880;BME280;47817;52.798;27.544;2023-01-29T11:31:51;1024.1;;;3;56.7
61880;BME280;47817;52.798;27.544;2023-01-29T11:36:33;1024;;;3;56.3
61880;BME280;47817;52.798;27.544;2023-01-29T11:41:55;1023.9;;;2.9;56.3
61880;BME280;47817;52.798;27.544;2023-01-29T11:46:43;1023.8;;;2.8;56.3
61880;BME280;47817;52.798;27.544;2023-01-29T11:51:41;1023.8;;;2.8;56.4
61880;BME280;47817;52.798;27.544;2023-01-29T11:56:20;1023.8;;;2.8;56.5
61880;BME280;47817;52.798;27.544;2023-01-29T12:01:51;1023.8;;;2.4;56.8
61880;BME280;47817;52.798;27.544;2023-01-29T12:06:07;1023.8;;;2.3;57.2
61880;BME280;47817;52.798;27.544;2023-01-29T12:11:43;1023.7;;;2.3;57.3
61880;BME280;47817;52.798;27.544;2023-01-29T12:16:55;1023.5;;;2.4;57.2
61880;BME280;47817;52.798;27.544;2023-01-29T12:21:44;1023.5;;;2.4;57.4
61880;BME280;47817;52.798;27.544;2023-01-29T12:26:40;1023.6;;;2.4;57.3
61880;BME280;47817;52.798;27.544;2023-01-29T12:31:32;1023.5;;;2.4;57.2
61880;BME280;47817;52.798;27.544;2023-01-29T12:36:44;1023.5;;;2.5;57.1
61880;BME280;47817;52.798;27.544;2023-01-29T12:41:10;1023.4;;;2.6;57
61880;BME280;47817;52.798;27.544;2023-01-29T12:46:17;1023.4;;;2.6;56.8
61880;BME280;47817;52.798;27.544;2023-01-29T12:51:34;1023.4;;;2.9;56.7
61880;BME280;47817;52.798;27.544;2023-01-29T12:56:41;1023.4;;;2.8;56.5
61880;BME280;47817;52.798;27.544;2023-01-29T13:01:09;1023.4;;;2.8;56.8
61880;BME280;47817;52.798;27.544;2023-01-29T13:06:53;1023.4;;;2.7;57.1
61880;BME280;47817;52.798;27.544;2023-01-29T13:11:45;1023.4;;;2.7;57.2
61880;BME280;47817;52.798;27.544;2023-01-29T13:16:19;1023.4;;;2.7;57.3
61880;BME280;47817;52.798;27.544;2023-01-29T13:21:55;1023.3;;;2.5;57.4
61880;BME280;47817;52.798;27.544;2023-01-29T13:26:17;1023.4;;;2.4;57.8
61880;BME280;47817;52.798;27.544;2023-01-29T13:31:41;1023.3;;;2.3;58.2
61880;BME280;47817;52.798;27.544;2023-01-29T13:36:09;1023.2;;;2.2;58.6
61880;BME280;47817;52.798;27.544;2023-01-29T13:41:41;1023.2;;;2.1;58.8
61880;BME280;47817;52.798;27.544;2023-01-29T13:46:19;1023.2;;;2.1;59
61880;BME280;47817;52.798;27.544;2023-01-29T13:51:53;1023.3;;;2.2;59.2
61880;BME280;47817;52.798;27.544;2023-01-29T13:57:31;1023.3;;;2.1;59.3
61880;BME280;47817;52.798;27.544;2023-01-29T14:02:44;1023.3;;;2;59.5
61880;BME280;47817;52.798;27.544;2023-01-29T14:06:44;1023.4;;;2;59.7
61880;BME280;47817;52.798;27.544;2023-01-29T14:11:57;1023.4;;;1.9;60
61880;BME280;47817;52.798;27.544;2023-01-29T14:16:25;1023.4;;;1.8;60.3
61880;BME280;47817;52.798;27.544;2023-01-29T14:21:31;1023.2;;;1.7;60.6
61880;BME280;47817;52.798;27.544;2023-01-29T14:26:55;1023.2;;;1.7;60.8
61880;BME280;47817;52.798;27.544;2023-01-29T14:31:07;1023.2;;;1.7;61.3
61880;BME280;47817;52.798;27.544;2023-01-29T14:36:43;1023.2;;;1.7;61.4
61880;BME280;47817;52.798;27.544;2023-01-29T14:41:33;1023.3;;;1.7;61.6
61880;BME280;47817;52.798;27.544;2023-01-29T14:46:55;1023.2;;;1.6;61.9
61880;BME280;47817;52.798;27.544;2023-01-29T14:51:31;1023.1;;;1.6;62.2
61880;BME280;47817;52.798;27.544;2023-01-29T14:56:44;1023.1;;;1.6;62.5
61880;BME280;47817;52.798;27.544;2023-01-29T15:01:21;1023.1;;;1.5;62.8
61880;BME280;47817;52.798;27.544;2023-01-29T15:06:54;1023.1;;;1.5;62.9
61880;BME280;47817;52.798;27.544;2023-01-29T15:11:33;1023;;;1.5;63.2
61880;BME280;47817;52.798;27.544;2023-01-29T15:16:20;1022.9;;;1.5;63.4
61880;BME280;47817;52.798;27.544;2023-01-29T15:22:03;1022.9;;;1.5;63.6
61880;BME280;47817;52.798;27.544;2023-01-29T15:26:31;1022.8;;;1.5;63.7
61880;BME280;47817;52.798;27.544;2023-01-29T15:31:41;1022.8;;;1.5;63.9
61880;BME280;47817;52.798;27.544;2023-01-29T15:36:55;1022.7;;;1.5;64.3
61880;BME280;47817;52.798;27.544;2023-01-29T15:42:11;1022.6;;;1.4;64.6
61880;BME280;47817;52.798;27.544;2023-01-29T15:46:31;1022.5;;;1.4;64.9
61880;BME280;47817;52.798;27.544;2023-01-29T15:51:55;1022.4;;;1.4;65.3
61880;BME280;47817;52.798;27.544;2023-01-29T15:56:33;1022.4;;;1.4;65.4
61880;BME280;47817;52.798;27.544;2023-01-29T16:01:07;1022.4;;;1.4;65.9
61880;BME280;47817;52.798;27.544;2023-01-29T16:06:41;1022.4;;;1.4;66
61880;BME280;47817;52.798;27.544;2023-01-29T16:11:07;1022.3;;;1.4;66.2
61880;BME280;47817;52.798;27.544;2023-01-29T16:16:15;1022.3;;;1.4;66.5
61880;BME280;47817;52.798;27.544;2023-01-29T16:21:07;1022.2;;;1.5;66.7
61880;BME280;47817;52.798;27.544;2023-01-29T16:26:23;1022.2;;;1.5;66.9
61880;BME280;47817;52.798;27.544;2023-01-29T16:31:53;1022.2;;;1.4;67.7
61880;BME280;47817;52.798;27.544;2023-01-29T16:36:07;1022.3;;;1.4;68.9
61880;BME280;47817;52.798;27.544;2023-01-29T16:41:45;1022.4;;;1.3;70.4
61880;BME280;47817;52.798;27.544;2023-01-29T16:46:47;1022.4;;;1.2;71.1
61880;BME280;47817;52.798;27.544;2023-01-29T16:51:43;1022.3;;;1.2;71.6
61880;BME280;47817;52.798;27.544;2023-01-29T16:56:35;1022.3;;;1.2;71.9
61880;BME280;47817;52.798;27.544;2023-01-29T17:01:17;1022.3;;;1.3;71.9
61880;BME280;47817;52.798;27.544;2023-01-29T17:06:07;1022.1;;;1.3;72.1
61880;BME280;47817;52.798;27.544;2023-01-29T17:11:07;1022.1;;;1.3;72.4
61880;BME280;47817;52.798;27.544;2023-01-29T17:17:00;1022.1;;;1.3;72.7
61880;BME280;47817;52.798;27.544;2023-01-29T17:21:21;1022.1;;;1.3;72.8
61880;BME280;47817;52.798;27.544;2023-01-29T17:26:57;1022;;;1.3;73
61880;BME280;47817;52.798;27.544;2023-01-29T17:31:33;1022;;;1.3;73.2
61880;BME280;47817;52.798;27.544;2023-01-29T17:36:53;1021.9;;;1.3;73.3
61880;BME280;47817;52.798;27.544;2023-01-29T17:41:08;1021.8;;;1.3;73.6
61880;BME280;47817;52.798;27.544;2023-01-29T17:46:43;1021.8;;;1.2;73.8
61880;BME280;47817;52.798;27.544;2023-01-29T17:51:55;1021.8;;;1.2;74.2
61880;BME280;47817;52.798;27.544;2023-01-29T17:56:56;1021.8;;;1.2;74.5
61880;BME280;47817;52.798;27.544;2023-01-29T18:01:07;1021.8;;;1.2;74.6
61880;BME280;47817;52.798;27.544;2023-01-29T18:06:55;1021.8;;;1.2;75.1
61880;BME280;47817;52.798;27.544;2023-01-29T18:11:53;1021.7;;;1.2;75.3
61880;BME280;47817;52.798;27.544;2023-01-29T18:16:53;1021.8;;;1.3;75.4
61880;BME280;47817;52.798;27.544;2023-01-29T18:21:41;1021.8;;;1.3;75.6
61880;BME280;47817;52.798;27.544;2023-01-29T18:26:33;1021.8;;;1.3;75.8
61880;BME280;47817;52.798;27.544;2023-01-29T18:31:43;1021.8;;;1.3;76
61880;BME280;47817;52.798;27.544;2023-01-29T18:36:07;1021.7;;;1.2;76.2
61880;BME280;47817;52.798;27.544;2023-01-29T18:41:41;1021.6;;;1.2;76.8
61880;BME280;47817;52.798;27.544;2023-01-29T18:46:07;1021.5;;;1.2;76.7
61880;BME280;47817;52.798;27.544;2023-01-29T18:51:31;1021.3;;;1.3;76.8
61880;BME280;47817;52.798;27.544;2023-01-29T18:56:17;1021.3;;;1.3;76.7
61880;BME280;47817;52.798;27.544;2023-01-29T19:01:53;1021.1;;;1.3;76.7
61880;BME280;47817;52.798;27.544;2023-01-29T19:06:55;1021.1;;;1.3;77
61880;BME280;47817;52.798;27.544;2023-01-29T19:11:41;1021.2;;;1.2;77.3
61880;BME280;47817;52.798;27.544;2023-01-29T19:16:41;1021.2;;;1.3;77.2
61880;BME280;47817;52.798;27.544;2023-01-29T19:21:33;1021.2;;;1.3;77.3
61880;BME280;47817;52.798;27.544;2023-01-29T19:26:43;1021.1;;;1.3;77.5
61880;BME280;47817;52.798;27.544;2023-01-29T19:31:07;1021;;;1.2;77.9
61880;BME280;47817;52.798;27.544;2023-01-29T19:36:37;1021;;;1.2;77.9
61880;BME280;47817;52.798;27.544;2023-01-29T19:41:07;1020.8;;;1.2;77.9
61880;BME280;47817;52.798;27.544;2023-01-29T19:46:31;1020.8;;;1.3;77.8
61880;BME280;47817;52.798;27.544;2023-01-29T19:51:08;1020.8;;;1.3;77.8
61880;BME280;47817;52.798;27.544;2023-01-29T19:56:57;1020.9;;;1.3;78
61880;BME280;47817;52.798;27.544;2023-01-29T20:01:41;1020.9;;;1.2;78.2
61880;BME280;47817;52.798;27.544;2023-01-29T20:06:41;1020.7;;;1.2;78.1
61880;BME280;47817;52.798;27.544;2023-01-29T20:11:57;1020.7;;;1.3;77.8
61880;BME280;47817;52.798;27.544;2023-01-29T20:16:33;1020.8;;;1.3;78.4
61880;BME280;47817;52.798;27.544;2023-01-29T20:21:45;1020.7;;;1.2;78.7
61880;BME280;47817;52.798;27.544;2023-01-29T20:26:07;1020.5;;;1.2;79
61880;BME280;47817;52.798;27.544;2023-01-29T20:31:43;1020.4;;;1.2;79.1
61880;BME280;47817;52.798;27.544;2023-01-29T20:36:19;1020.5;;;1.2;79.4
61880;BME280;47817;52.798;27.544;2023-01-29T20:41:55;1020.3;;;1.2;79.4
61880;BME280;47817;52.798;27.544;2023-01-29T20:46:29;1020.2;;;1.2;79.5
61880;BME280;47817;52.798;27.544;2023-01-29T20:51:41;1020.2;;;1.2;79.5
61880;BME280;47817;52.798;27.544;2023-01-29T20:56:31;1020.1;;;1.3;79.5
61880;BME280;47817;52.798;27.544;2023-01-29T21:01:49;1020.1;;;1.3;79.5
61880;BME280;47817;52.798;27.544;2023-01-29T21:06:07;1020.1;;;1.3;79.5
61880;BME280;47817;52.798;27.544;2023-01-29T21:11:07;1020.2;;;1.3;79.3
61880;BME280;47817;52.798;27.544;2023-01-29T21:16:57;1020.2;;;1.3;79.3
61880;BME280;47817;52.798;27.544;2023-01-29T21:21:07;1020.2;;;1.3;79.2
61880;BME280;47817;52.798;27.544;2023-01-29T21:26:41;1020;;;1.3;79.3
61880;BME280;47817;52.798;27.544;2023-01-29T21:31:55;1019.9;;;1.3;79.4
61880;BME280;47817;52.798;27.544;2023-01-29T21:36:55;1019.9;;;1.3;79.5
61880;BME280;47817;52.798;27.544;2023-01-29T21:41:33;1019.8;;;1.3;79.8
61880;BME280;47817;52.798;27.544;2023-01-29T21:46:55;1019.8;;;1.3;80
61880;BME280;47817;52.798;27.544;2023-01-29T21:51:29;1019.7;;;1.2;80.2
61880;BME280;47817;52.798;27.544;2023-01-29T21:56:07;1019.6;;;1.3;80.3
61880;BME280;47817;52.798;27.544;2023-01-29T22:01:17;1019.6;;;1.3;80.3
61880;BME280;47817;52.798;27.544;2023-01-29T22:06:07;1019.6;;;1.3;80.1
61880;BME280;47817;52.798;27.544;2023-01-29T22:11:21;1019.5;;;1.4;79.9
61880;BME280;47817;52.798;27.544;2023-01-29T22:16:07;1019.5;;;1.4;79.8
61880;BME280;47817;52.798;27.544;2023-01-29T22:21:43;1019.6;;;1.4;79.7
61880;BME280;47817;52.798;27.544;2023-01-29T22:26:57;1019.5;;;1.4;79.6
61880;BME280;47817;52.798;27.544;2023-01-29T22:31:43;1019.4;;;1.3;79.6
61880;BME280;47817;52.798;27.544;2023-01-29T22:36:07;1019.4;;;1.3;79.8
61880;BME280;47817;52.798;27.544;2023-01-29T22:41:57;1019.3;;;1.3;79.7
61880;BME280;47817;52.798;27.544;2023-01-29T22:46:43;1019;;;1.2;79.8
61880;BME280;47817;52.798;27.544;2023-01-29T22:51:19;1018.8;;;1.2;79.8
61880;BME280;47817;52.798;27.544;2023-01-29T22:56:31;1018.5;;;1.3;79.6
61880;BME280;47817;52.798;27.544;2023-01-29T23:01:29;1018.6;;;1.2;79.6
61880;BME280;47817;52.798;27.544;2023-01-29T23:06:29;1018.6;;;1.2;79.8
61880;BME280;47817;52.798;27.544;2023-01-29T23:11:51;1018.6;;;1.2;79.8
61880;BME280;47817;52.798;27.544;2023-01-29T23:16:29;1018.5;;;1.2;79.8
61880;BME280;47817;52.798;27.544;2023-01-29T23:21:53;1018.4;;;1.2;79.9
61880;BME280;47817;52.798;27.544;2023-01-29T23:26:19;1018.4;;;1.3;79.8
61880;BME280;47817;52.798;27.544;2023-01-29T23:31:47;1018.3;;;1.3;79.8
61880;BME280;47817;52.798;27.544;2023-01-29T23:36:49;1018.2;;;1.2;80
61880;BME280;47817;52.798;27.544;2023-01-29T23:41:37;1018.1;;;1.3;80.1
61880;BME280;47817;52.798;27.544;2023-01-29T23:46:19;1018;;;1.2;80.3
61880;BME280;47817;52.798;27.544;2023-01-29T23:51:17;1017.9;;;1.2;80.5
61880;BME280;47817;52.798;27.544;2023-01-29T23:56:17;1017.9;;;1.2;80.7
